Del Rio International Airport
KDRT : now visible

Airfield :











YOU CAN JOIN US ON...

 
LOGIN :

Register | Disclaimer

   EN    FR    IT 

 









Legend :    VFR   Marginal VFR   IFR   Intensive IFR   Very Intensive IFR
Visi :
Ceiling :
>= 8 km
>= 3000ft
5 to 8 km
1000 to 3000 ft
1500m to 5 km
500 to 1000 ft
800 to 1500m
200 to 500 ft
< 800m
< 200 ft
Symbols :   Thunderstorms  Fog  Heavy snow  Heavy precipitations  Wind > 20 kt






- Airport Elevation : 1002 ft


KDRT - Del Rio International

CURRENT METAR :
  • 230653Z AUTO 00000KT 10SM OVC070 14/10 A2998 RMK AO2 SLP140 T01390100

EXPIRED METARs :
  • 230553Z AUTO 32003KT 10SM OVC075 14/08 A2997 RMK AO2 SLP140 T01390083 10250 20122 402720106 53006
  • 230453Z AUTO 00000KT 10SM CLR 14/08 A2996 RMK AO2 SLP137 T01440078

TAF KDRT
Valid from the 23 at 06:00 until the 24 at 06:00 UTC


230521Z 2306/2406 VRB04KT P6SM SCT080
FM231000 08004KT P6SM OVC012
FM231300 12010KT 3SM BR OVC007
FM240400 10006KT 2SM BR OVC004
KZHU FIR / North America



MET'MAP, your aeronautical weather chart ! - Copyright ORBIFLY December 2007 - Disclaimer

ORBIFLY MET'MAP TEAM :

Programming & Development : Alexandra Zaïnal
Concept & original design : Baudouin d'Aumeries
Assistance for programming : Marc-Olivier Méhu
Technical & hardware support : Manuel Goepfert

Contact : metmap@orbifly.com




SOURCES & CREDITS :

   NOAA       Earth
Advisory